createdAt,value
2018-06-10T00:02:22.258Z,82.75
2018-06-10T00:04:50.007Z,82.22
2018-06-10T00:07:17.749Z,82.31
2018-06-10T00:09:45.533Z,82.32
2018-06-10T00:12:13.231Z,82.26
2018-06-10T00:14:41.003Z,82.05
2018-06-10T00:17:08.695Z,82.21
2018-06-10T00:19:36.387Z,82.47
2018-06-10T00:22:04.118Z,82.14
2018-06-10T00:24:31.782Z,82.31
2018-06-10T00:26:59.482Z,82.66
2018-06-10T00:29:27.235Z,82.31
2018-06-10T00:31:54.902Z,81.94
2018-06-10T00:34:22.590Z,81.83
2018-06-10T00:36:50.319Z,81.77
2018-06-10T00:39:18.106Z,81.85
2018-06-10T00:41:45.791Z,82.17
2018-06-10T00:44:13.526Z,81.90
2018-06-10T00:46:41.187Z,81.38
2018-06-10T00:49:08.876Z,81.56
2018-06-10T00:51:36.603Z,82.57
2018-06-10T00:54:04.630Z,82.66
2018-06-10T00:56:38.064Z,83.09
2018-06-10T00:59:06.762Z,83.12
2018-06-10T01:01:34.523Z,83.27
2018-06-10T01:04:02.279Z,82.84
2018-06-10T01:06:29.993Z,82.81
2018-06-10T01:08:57.733Z,82.59
2018-06-10T01:11:25.462Z,82.66
2018-06-10T01:13:53.194Z,82.79
2018-06-10T01:16:20.830Z,82.51
2018-06-10T01:18:48.589Z,82.62
2018-06-10T01:21:16.298Z,83.09
2018-06-10T01:23:44.104Z,82.94
2018-06-10T01:26:11.892Z,82.88
2018-06-10T01:28:39.569Z,83.45
2018-06-10T01:31:07.243Z,84.34
2018-06-10T01:33:34.985Z,84.57
2018-06-10T01:36:02.667Z,84.66
2018-06-10T01:38:30.358Z,84.97
2018-06-10T01:40:58.075Z,84.78
2018-06-10T01:43:25.745Z,84.38
2018-06-10T01:45:53.435Z,84.24
2018-06-10T01:48:21.175Z,84.08
2018-06-10T01:50:48.875Z,84.51
2018-06-10T01:53:16.534Z,84.09
2018-06-10T01:55:44.209Z,83.21
2018-06-10T01:58:11.858Z,83.41
2018-06-10T02:00:39.538Z,83.54
2018-06-10T02:03:07.226Z,83.58
2018-06-10T02:05:34.894Z,81.85
2018-06-10T02:08:02.592Z,81.59
2018-06-10T02:10:30.285Z,81.59
2018-06-10T02:12:58.006Z,82.29
2018-06-10T02:15:25.711Z,82.64
2018-06-10T02:17:53.443Z,82.93
2018-06-10T02:20:21.092Z,83.38
2018-06-10T02:22:48.837Z,84.03
2018-06-10T02:25:16.547Z,84.76
2018-06-10T02:27:44.255Z,84.83
2018-06-10T02:30:11.906Z,84.79
2018-06-10T02:32:39.601Z,84.72
2018-06-10T02:35:07.281Z,85.08
2018-06-10T02:37:34.991Z,85.32
2018-06-10T02:40:02.690Z,84.92
2018-06-10T02:42:30.350Z,84.02
2018-06-10T02:44:58.075Z,83.12
2018-06-10T02:47:25.754Z,82.50
2018-06-10T02:49:53.430Z,82.98
2018-06-10T02:52:21.135Z,82.81
2018-06-10T02:54:48.803Z,83.32
2018-06-10T02:57:16.555Z,83.73
2018-06-10T02:59:44.240Z,84.33
2018-06-10T03:02:11.949Z,84.11
2018-06-10T03:04:39.696Z,84.77
2018-06-10T03:07:07.342Z,85.04
2018-06-10T03:09:35.013Z,85.35
2018-06-10T03:12:02.756Z,85.29
2018-06-10T03:14:31.578Z,85.02
2018-06-10T03:16:59.233Z,84.83
2018-06-10T03:19:26.930Z,85.09
2018-06-10T03:21:54.658Z,85.15
2018-06-10T03:24:22.347Z,85.68
2018-06-10T03:26:50.067Z,85.29
2018-06-10T03:29:17.819Z,85.23
2018-06-10T03:31:45.539Z,85.39
2018-06-10T03:34:13.198Z,85.17
2018-06-10T03:36:40.887Z,84.98
2018-06-10T03:39:08.571Z,84.81
2018-06-10T03:41:36.230Z,85.02
2018-06-10T03:44:03.946Z,84.99
2018-06-10T03:46:31.631Z,85.24
2018-06-10T03:48:59.294Z,84.74
2018-06-10T03:51:26.946Z,84.16
2018-06-10T03:53:54.697Z,83.69
2018-06-10T03:56:22.382Z,83.45
2018-06-10T03:58:50.127Z,82.97
2018-06-10T04:01:17.809Z,83.43
2018-06-10T04:03:45.550Z,83.78
2018-06-10T04:06:13.231Z,84.34
2018-06-10T04:08:40.938Z,84.01
2018-06-10T04:11:08.705Z,84.38
2018-06-10T04:13:36.439Z,84.24
2018-06-10T04:16:04.173Z,84.83
2018-06-10T04:18:31.890Z,84.81
2018-06-10T04:20:59.631Z,83.91
2018-06-10T04:23:27.328Z,83.29
2018-06-10T04:25:55.018Z,83.78
2018-06-10T04:28:22.749Z,82.62
2018-06-10T04:30:50.414Z,82.02
2018-06-10T04:33:18.105Z,82.47
2018-06-10T04:35:45.774Z,82.51
2018-06-10T04:38:13.498Z,81.53
2018-06-10T04:40:41.158Z,80.33
2018-06-10T04:43:08.887Z,80.30
2018-06-10T04:45:36.594Z,79.38
2018-06-10T04:48:04.341Z,78.35
2018-06-10T04:50:32.015Z,78.33
2018-06-10T04:52:59.707Z,77.96
2018-06-10T04:55:27.346Z,77.74
2018-06-10T04:57:55.061Z,77.22
2018-06-10T05:00:22.791Z,76.93
2018-06-10T05:02:50.466Z,76.38
2018-06-10T05:05:18.129Z,75.87
2018-06-10T05:07:45.828Z,75.81
2018-06-10T05:10:13.518Z,75.39
2018-06-10T05:12:41.207Z,74.90
2018-06-10T05:15:08.986Z,74.74
2018-06-10T05:17:36.678Z,73.78
2018-06-10T05:20:04.507Z,74.22
2018-06-10T05:22:32.124Z,72.89
2018-06-10T05:24:59.782Z,72.06
2018-06-10T05:27:27.502Z,71.34
2018-06-10T05:29:55.190Z,70.56
2018-06-10T05:32:22.874Z,69.29
2018-06-10T05:34:50.613Z,68.17
2018-06-10T05:37:18.309Z,67.96
2018-06-10T05:39:46.022Z,68.03
2018-06-10T05:42:13.726Z,68.36
2018-06-10T05:44:41.415Z,67.85
2018-06-10T05:47:09.117Z,67.01
2018-06-10T05:49:36.809Z,66.19
2018-06-10T05:52:04.577Z,66.00
2018-06-10T05:54:32.237Z,64.14
2018-06-10T05:56:59.972Z,63.93
2018-06-10T05:59:27.701Z,63.18
2018-06-10T06:01:55.453Z,63.65
2018-06-10T06:04:23.187Z,63.41
2018-06-10T06:06:50.893Z,63.23
2018-06-10T06:09:18.587Z,62.08
2018-06-10T06:11:46.282Z,62.17
2018-06-10T06:14:14.014Z,61.53
2018-06-10T06:16:41.688Z,61.52
2018-06-10T06:19:09.389Z,60.91
2018-06-10T06:21:37.100Z,60.09
2018-06-10T06:24:04.806Z,59.31
2018-06-10T06:26:32.542Z,59.33
2018-06-10T06:29:00.498Z,58.98
2018-06-10T06:31:28.267Z,58.48
2018-06-10T06:33:56.023Z,58.81
2018-06-10T06:36:23.747Z,59.52
2018-06-10T06:38:51.454Z,58.86
2018-06-10T06:41:19.122Z,57.32
2018-06-10T06:43:47.149Z,57.95
2018-06-10T06:46:14.842Z,55.96
2018-06-10T06:48:42.601Z,54.28
2018-06-10T06:51:10.329Z,54.08
2018-06-10T06:53:38.080Z,52.95
2018-06-10T06:56:05.843Z,52.86
2018-06-10T06:58:33.538Z,51.81
2018-06-10T07:01:01.237Z,51.76
2018-06-10T07:03:28.929Z,50.67
2018-06-10T07:05:56.638Z,52.38
2018-06-10T07:08:24.361Z,50.50
2018-06-10T07:10:52.035Z,50.55
2018-06-10T07:13:19.828Z,47.77
2018-06-10T07:15:47.604Z,45.83
2018-06-10T07:18:15.303Z,44.52
2018-06-10T07:20:43.005Z,43.06
2018-06-10T07:23:10.728Z,44.52
2018-06-10T07:25:38.479Z,44.38
2018-06-10T07:28:06.344Z,45.28
2018-06-10T07:30:34.278Z,44.39
2018-06-10T07:33:01.995Z,44.08
2018-06-10T07:35:29.660Z,43.11
2018-06-10T07:37:57.388Z,41.72
2018-06-10T07:40:25.152Z,39.26
2018-06-10T07:42:52.824Z,37.69
2018-06-10T07:45:20.545Z,39.48
2018-06-10T07:47:48.217Z,37.33
2018-06-10T07:50:15.901Z,34.94
2018-06-10T07:52:43.590Z,34.79
2018-06-10T07:55:11.284Z,35.40
2018-06-10T07:57:38.971Z,34.32
2018-06-10T08:00:06.727Z,33.76
2018-06-10T08:02:34.429Z,32.04
2018-06-10T08:05:02.187Z,31.77
2018-06-10T08:07:30.305Z,31.68
2018-06-10T08:09:57.995Z,31.68
2018-06-10T08:12:25.676Z,30.27
2018-06-10T08:14:53.497Z,30.33
2018-06-10T08:17:21.234Z,29.28
2018-06-10T08:19:48.930Z,28.85
2018-06-10T08:22:16.671Z,29.57
2018-06-10T08:24:44.347Z,28.12
2018-06-10T08:27:12.049Z,26.38
2018-06-10T08:29:39.742Z,28.09
2018-06-10T08:32:07.432Z,29.79
2018-06-10T08:34:35.162Z,31.05
2018-06-10T08:37:02.954Z,31.45
2018-06-10T08:39:30.668Z,30.78
2018-06-10T08:41:58.379Z,30.72
2018-06-10T08:44:26.161Z,26.88
2018-06-10T08:46:53.883Z,26.87
2018-06-10T08:49:21.750Z,25.86
2018-06-10T08:51:49.419Z,25.83
2018-06-10T08:54:17.310Z,24.86
2018-06-10T08:56:44.979Z,23.81
2018-06-10T08:59:12.650Z,23.87
2018-06-10T09:01:40.343Z,23.55
2018-06-10T09:04:08.028Z,24.07
2018-06-10T09:06:35.743Z,24.83
2018-06-10T09:09:05.615Z,26.92
2018-06-10T09:11:33.315Z,27.96
2018-06-10T09:14:01.069Z,26.40
2018-06-10T09:16:28.784Z,26.69
2018-06-10T09:18:56.563Z,26.96
2018-06-10T09:21:24.238Z,27.80
2018-06-10T09:23:51.968Z,27.86
2018-06-10T09:26:19.666Z,28.33
2018-06-10T09:28:47.350Z,27.90
2018-06-10T09:31:15.043Z,29.06
2018-06-10T09:33:42.832Z,28.55
2018-06-10T09:36:10.553Z,28.06
2018-06-10T09:38:38.250Z,30.77
2018-06-10T09:41:05.995Z,31.43
2018-06-10T09:43:33.701Z,31.61
2018-06-10T09:46:01.419Z,31.50
2018-06-10T09:48:29.100Z,32.63
2018-06-10T09:50:57.857Z,32.14
2018-06-10T09:53:25.545Z,33.73
2018-06-10T09:55:53.254Z,33.32
2018-06-10T09:58:20.963Z,34.14
2018-06-10T10:00:48.677Z,33.27
2018-06-10T10:03:16.391Z,31.85
2018-06-10T10:05:44.099Z,30.95
2018-06-10T10:08:11.778Z,28.75
2018-06-10T10:10:39.425Z,27.54
2018-06-10T10:13:07.131Z,26.49
2018-06-10T10:15:35.019Z,26.68
2018-06-10T10:18:02.844Z,25.50
2018-06-10T10:20:30.506Z,25.42
2018-06-10T10:22:58.118Z,25.84
2018-06-10T10:25:26.690Z,24.71
2018-06-10T10:27:54.393Z,25.30
2018-06-10T10:30:22.093Z,24.82
2018-06-10T10:32:50.240Z,24.58
2018-06-10T10:35:17.921Z,28.04
2018-06-10T10:37:45.640Z,24.09
2018-06-10T10:40:13.346Z,24.84
2018-06-10T10:42:41.019Z,24.86
2018-06-10T10:45:08.645Z,25.94
2018-06-10T10:47:36.341Z,24.87
2018-06-10T10:50:04.101Z,26.39
2018-06-10T10:52:31.790Z,24.34
2018-06-10T10:54:59.436Z,23.61
2018-06-10T10:57:27.100Z,24.25
2018-06-10T10:59:54.746Z,24.87
2018-06-10T11:02:22.460Z,24.54
2018-06-10T11:04:50.155Z,25.80
2018-06-10T11:07:17.769Z,27.24
2018-06-10T11:09:45.491Z,26.59
2018-06-10T11:12:13.283Z,26.31
2018-06-10T11:14:41.002Z,29.26
2018-06-10T11:17:08.779Z,29.49
2018-06-10T11:19:36.462Z,31.51
2018-06-10T11:22:04.124Z,30.31
2018-06-10T11:24:31.766Z,30.58
2018-06-10T11:26:59.505Z,31.65
2018-06-10T11:29:27.251Z,31.26
2018-06-10T11:31:54.918Z,30.95
2018-06-10T11:34:22.604Z,30.50
2018-06-10T11:36:50.266Z,31.61
2018-06-10T11:39:17.930Z,30.80
2018-06-10T11:41:45.720Z,30.14
2018-06-10T11:44:13.413Z,30.22
2018-06-10T11:46:41.126Z,32.59
2018-06-10T11:49:08.781Z,31.34
2018-06-10T11:51:36.681Z,32.37
2018-06-10T11:54:04.455Z,32.23
2018-06-10T11:56:32.118Z,31.89
2018-06-10T11:58:59.823Z,31.70
2018-06-10T12:01:27.486Z,30.93
2018-06-10T12:03:55.246Z,32.22
2018-06-10T12:06:22.974Z,31.30
2018-06-10T12:08:50.603Z,31.99
2018-06-10T12:11:18.278Z,31.10
2018-06-10T12:13:46.037Z,30.17
2018-06-10T12:16:13.784Z,30.59
2018-06-10T12:18:41.506Z,30.75
2018-06-10T12:21:09.157Z,32.00
2018-06-10T12:23:36.824Z,32.21
2018-06-10T12:26:04.516Z,32.83
2018-06-10T12:28:32.218Z,32.92
2018-06-10T12:30:59.910Z,32.39
2018-06-10T12:33:27.578Z,32.37
2018-06-10T12:35:55.230Z,33.05
2018-06-10T12:38:22.867Z,34.09
2018-06-10T12:40:50.578Z,34.12
2018-06-10T12:43:18.300Z,34.09
2018-06-10T12:45:46.015Z,35.50
2018-06-10T12:48:13.710Z,35.09
2018-06-10T12:50:41.658Z,36.44
2018-06-10T12:53:09.357Z,36.40
2018-06-10T12:55:37.067Z,37.41
2018-06-10T12:58:05.221Z,36.37
2018-06-10T13:00:32.989Z,36.85
2018-06-10T13:03:00.757Z,37.98
2018-06-10T13:05:28.496Z,37.97
2018-06-10T13:07:56.206Z,41.96
2018-06-10T13:10:23.958Z,41.66
2018-06-10T13:12:51.690Z,40.53
2018-06-10T13:15:19.497Z,40.99
2018-06-10T13:17:47.270Z,45.30
2018-06-10T13:20:14.957Z,49.89
2018-06-10T13:22:42.680Z,54.03
2018-06-10T13:25:10.423Z,59.89
2018-06-10T13:27:38.205Z,58.13
2018-06-10T13:30:05.935Z,63.73
2018-06-10T13:32:33.690Z,65.53
2018-06-10T13:35:01.435Z,67.35
2018-06-10T13:37:29.156Z,69.75
2018-06-10T13:39:56.974Z,68.93
2018-06-10T13:42:24.677Z,68.20
2018-06-10T13:44:52.387Z,68.18
2018-06-10T13:47:20.124Z,68.63
2018-06-10T13:49:47.820Z,67.63
2018-06-10T13:52:15.533Z,68.74
2018-06-10T13:54:43.225Z,67.68
2018-06-10T13:57:10.926Z,68.22
2018-06-10T13:59:38.709Z,67.49
2018-06-10T14:02:06.475Z,64.29
2018-06-10T14:04:34.190Z,64.51
2018-06-10T14:07:01.989Z,66.61
2018-06-10T14:09:29.739Z,65.79
2018-06-10T14:11:57.456Z,66.71
2018-06-10T14:14:25.323Z,65.93
2018-06-10T14:16:53.117Z,65.40
2018-06-10T14:19:20.795Z,66.21
2018-06-10T14:21:48.567Z,64.86
2018-06-10T14:24:17.103Z,64.55
2018-06-10T14:26:44.822Z,65.01
2018-06-10T14:29:12.582Z,65.03
2018-06-10T14:31:40.270Z,63.97
2018-06-10T14:34:08.123Z,64.92
2018-06-10T14:36:35.857Z,63.21
2018-06-10T14:39:05.599Z,61.77
2018-06-10T14:41:33.328Z,62.93
2018-06-10T14:44:01.171Z,63.30
2018-06-10T14:46:28.925Z,63.14
2018-06-10T14:48:57.101Z,62.07
2018-06-10T14:51:24.818Z,62.56
2018-06-10T14:53:52.506Z,63.73
2018-06-10T14:56:20.226Z,62.03
2018-06-10T14:58:47.915Z,62.02
2018-06-10T15:01:15.676Z,61.56
2018-06-10T15:03:43.402Z,62.40
2018-06-10T15:06:11.235Z,61.91
2018-06-10T15:08:38.969Z,61.55
2018-06-10T15:11:06.686Z,62.02
2018-06-10T15:13:34.646Z,60.96
2018-06-10T15:16:02.346Z,62.24
2018-06-10T15:18:30.054Z,62.20
2018-06-10T15:20:57.881Z,61.27
2018-06-10T15:23:25.581Z,61.82
2018-06-10T15:25:53.314Z,62.32
2018-06-10T15:28:21.022Z,60.62
2018-06-10T15:30:48.774Z,58.86
2018-06-10T15:33:16.858Z,59.21
2018-06-10T15:35:44.562Z,57.43
2018-06-10T15:38:12.266Z,56.91
2018-06-10T15:40:40.003Z,56.64
2018-06-10T15:43:07.739Z,57.33
2018-06-10T15:45:35.512Z,56.92
2018-06-10T15:48:03.242Z,57.46
2018-06-10T15:50:30.968Z,56.01
2018-06-10T15:52:58.667Z,56.49
2018-06-10T15:55:26.480Z,56.62
2018-06-10T15:57:54.191Z,53.52
2018-06-10T16:00:21.861Z,54.93
2018-06-10T16:02:49.578Z,54.98
2018-06-10T16:05:17.323Z,54.77
2018-06-10T16:07:45.041Z,55.17
2018-06-10T16:10:12.819Z,54.11
2018-06-10T16:12:40.565Z,53.27
2018-06-10T16:15:08.263Z,54.77
2018-06-10T16:17:36.044Z,52.91
2018-06-10T16:20:03.756Z,52.34
2018-06-10T16:22:31.505Z,56.16
2018-06-10T16:24:59.238Z,56.33
2018-06-10T16:27:26.935Z,53.51
2018-06-10T16:29:54.618Z,55.04
2018-06-10T16:32:22.388Z,54.25
2018-06-10T16:34:50.103Z,53.25
2018-06-10T16:37:17.879Z,53.11
2018-06-10T16:39:45.590Z,53.55
2018-06-10T16:42:13.354Z,55.03
2018-06-10T16:44:41.116Z,53.82
2018-06-10T16:47:08.886Z,54.55
2018-06-10T16:49:36.606Z,54.18
2018-06-10T16:52:04.295Z,52.95
2018-06-10T16:54:32.055Z,53.13
2018-06-10T16:56:59.823Z,53.87
2018-06-10T16:59:27.578Z,53.11
2018-06-10T17:01:55.305Z,52.47
2018-06-10T17:04:23.089Z,53.48
2018-06-10T17:06:50.786Z,54.38
2018-06-10T17:09:18.457Z,55.71
2018-06-10T17:11:46.182Z,55.96
2018-06-10T17:14:13.918Z,57.13
2018-06-10T17:16:41.642Z,58.52
2018-06-10T17:19:09.368Z,58.44
2018-06-10T17:21:37.080Z,59.64
2018-06-10T17:24:04.765Z,59.51
2018-06-10T17:26:32.466Z,61.04
2018-06-10T17:29:00.199Z,63.06
2018-06-10T17:31:27.954Z,62.98
2018-06-10T17:33:55.706Z,64.09
2018-06-10T17:36:23.470Z,62.75
2018-06-10T17:38:51.192Z,61.03
2018-06-10T17:41:18.985Z,62.24
2018-06-10T17:43:46.898Z,61.96
2018-06-10T17:46:14.594Z,60.98
2018-06-10T17:48:42.328Z,60.75
2018-06-10T17:51:10.054Z,62.77
2018-06-10T17:53:37.799Z,64.30
2018-06-10T17:56:05.484Z,62.88
2018-06-10T17:58:33.176Z,64.01
2018-06-10T18:01:00.879Z,63.95
2018-06-10T18:03:28.611Z,64.40
2018-06-10T18:05:56.308Z,64.82
2018-06-10T18:08:24.027Z,63.06
2018-06-10T18:10:51.915Z,64.09
2018-06-10T18:13:19.600Z,63.91
2018-06-10T18:15:47.330Z,64.71
2018-06-10T18:18:15.058Z,64.47
2018-06-10T18:20:42.766Z,64.96
2018-06-10T18:23:10.571Z,65.31
2018-06-10T18:25:38.324Z,66.83
2018-06-10T18:28:06.087Z,67.35
2018-06-10T18:30:33.799Z,67.48
2018-06-10T18:33:01.493Z,67.14
2018-06-10T18:35:29.315Z,67.54
2018-06-10T18:37:57.087Z,68.45
2018-06-10T18:40:24.806Z,68.69
2018-06-10T18:42:52.590Z,70.00
2018-06-10T18:45:20.309Z,71.55
2018-06-10T18:47:48.006Z,71.93
2018-06-10T18:50:15.715Z,72.26
2018-06-10T18:52:43.428Z,72.17
2018-06-10T18:55:11.188Z,72.27
2018-06-10T18:57:38.914Z,72.00
2018-06-10T19:00:06.646Z,71.80
2018-06-10T19:02:34.362Z,71.06
2018-06-10T19:05:02.157Z,71.91
2018-06-10T19:07:29.903Z,72.12
2018-06-10T19:09:57.645Z,72.58
2018-06-10T19:12:25.429Z,72.61
2018-06-10T19:14:53.528Z,73.67
2018-06-10T19:17:21.277Z,73.62
2018-06-10T19:19:48.980Z,73.60
2018-06-10T19:22:16.690Z,73.25
2018-06-10T19:24:44.384Z,73.50
2018-06-10T19:27:12.135Z,74.19
2018-06-10T19:29:39.859Z,73.79
2018-06-10T19:32:07.605Z,73.51
2018-06-10T19:34:35.298Z,74.04
2018-06-10T19:37:02.989Z,73.71
2018-06-10T19:39:30.711Z,73.86
2018-06-10T19:41:58.431Z,73.61
2018-06-10T19:44:26.195Z,73.40
2018-06-10T19:46:53.858Z,74.42
2018-06-10T19:49:21.601Z,74.41
2018-06-10T19:51:49.361Z,74.22
2018-06-10T19:54:17.058Z,74.09
2018-06-10T19:56:44.841Z,73.39
2018-06-10T19:59:12.654Z,74.10
2018-06-10T20:01:40.563Z,74.34
2018-06-10T20:04:08.305Z,74.72
2018-06-10T20:06:36.023Z,75.38
2018-06-10T20:09:05.638Z,75.87
2018-06-10T20:11:33.458Z,76.15
2018-06-10T20:14:01.211Z,77.13
2018-06-10T20:16:28.906Z,77.51
2018-06-10T20:18:56.646Z,76.68
2018-06-10T20:21:24.367Z,76.41
2018-06-10T20:23:52.087Z,77.22
2018-06-10T20:26:20.172Z,76.97
2018-06-10T20:28:47.896Z,77.58
2018-06-10T20:31:15.607Z,78.09
2018-06-10T20:33:43.350Z,78.69
2018-06-10T20:36:11.086Z,78.13
2018-06-10T20:38:38.772Z,78.16
2018-06-10T20:41:06.521Z,77.71
2018-06-10T20:43:34.226Z,76.64
2018-06-10T20:46:01.952Z,76.52
2018-06-10T20:48:29.726Z,76.98
2018-06-10T20:50:57.387Z,76.27
2018-06-10T20:53:25.107Z,76.18
2018-06-10T20:55:52.811Z,76.01
2018-06-10T20:58:20.535Z,75.42
2018-06-10T21:00:48.267Z,76.06
2018-06-10T21:03:16.079Z,75.13
2018-06-10T21:05:43.785Z,75.28
2018-06-10T21:08:11.507Z,75.37
2018-06-10T21:10:39.231Z,75.15
2018-06-10T21:13:06.959Z,75.94
2018-06-10T21:15:34.700Z,75.82
2018-06-10T21:18:02.371Z,76.04
2018-06-10T21:20:30.122Z,76.21
2018-06-10T21:22:57.810Z,76.08
2018-06-10T21:25:25.575Z,76.05
2018-06-10T21:27:53.267Z,76.65
2018-06-10T21:30:21.038Z,77.50
2018-06-10T21:32:48.805Z,77.48
2018-06-10T21:35:16.569Z,77.92
2018-06-10T21:37:44.354Z,77.74
2018-06-10T21:40:12.037Z,77.95
2018-06-10T21:42:39.718Z,78.25
2018-06-10T21:45:07.478Z,78.45
2018-06-10T21:47:35.324Z,78.83
2018-06-10T21:50:03.111Z,78.77
2018-06-10T21:52:30.792Z,78.94
2018-06-10T21:54:58.560Z,79.05
2018-06-10T21:57:26.310Z,79.32
2018-06-10T21:59:54.043Z,79.26
2018-06-10T22:02:21.763Z,79.44
2018-06-10T22:04:49.487Z,79.30
2018-06-10T22:07:17.177Z,79.08
2018-06-10T22:09:44.892Z,79.34
2018-06-10T22:12:12.610Z,79.23
2018-06-10T22:14:40.283Z,78.83
2018-06-10T22:17:07.984Z,78.88
2018-06-10T22:19:35.664Z,78.75
2018-06-10T22:22:03.342Z,78.76
2018-06-10T22:24:31.064Z,78.90
2018-06-10T22:26:58.849Z,78.64
2018-06-10T22:29:26.584Z,78.57
2018-06-10T22:31:54.234Z,78.18
2018-06-10T22:34:21.940Z,78.42
2018-06-10T22:36:49.631Z,78.77
2018-06-10T22:39:17.313Z,79.27
2018-06-10T22:41:44.978Z,79.23
2018-06-10T22:44:12.660Z,79.80
2018-06-10T22:46:40.375Z,80.17
2018-06-10T22:49:08.069Z,79.76
2018-06-10T22:51:35.755Z,80.44
2018-06-10T22:54:09.284Z,79.94
2018-06-10T22:56:37.047Z,80.14
2018-06-10T22:59:04.771Z,80.12
2018-06-10T23:01:32.482Z,80.54
2018-06-10T23:04:00.260Z,80.11
2018-06-10T23:06:27.940Z,80.52
2018-06-10T23:08:55.627Z,79.88
2018-06-10T23:11:23.291Z,80.42
2018-06-10T23:13:50.995Z,80.68
2018-06-10T23:16:18.638Z,80.48
2018-06-10T23:18:46.304Z,80.84
2018-06-10T23:21:13.982Z,80.50
2018-06-10T23:23:41.635Z,80.23
2018-06-10T23:26:09.408Z,80.32
2018-06-10T23:28:37.215Z,81.24
2018-06-10T23:31:04.906Z,81.16
2018-06-10T23:33:32.582Z,80.78
2018-06-10T23:36:00.298Z,81.61
2018-06-10T23:38:27.977Z,81.16
2018-06-10T23:40:55.640Z,81.08
2018-06-10T23:43:23.362Z,80.35
2018-06-10T23:45:51.076Z,80.77
2018-06-10T23:48:18.786Z,80.50
2018-06-10T23:50:46.477Z,80.60
2018-06-10T23:53:14.176Z,81.14
2018-06-10T23:55:41.832Z,80.52
2018-06-10T23:58:09.746Z,79.96
